createdAt,value
2022-09-29T07:14:43.667Z,44.43
2022-09-29T07:17:32.152Z,40.13
2022-09-29T07:20:20.497Z,38.50
2022-09-29T07:23:09.280Z,36.70
2022-09-29T07:25:57.745Z,34.30
2022-09-29T07:28:47.432Z,35.17
2022-09-29T07:31:47.964Z,35.00
2022-09-29T07:34:39.249Z,34.60
2022-09-29T07:37:27.858Z,31.87
2022-09-29T07:40:18.020Z,31.43
2022-09-29T07:43:07.735Z,32.40
2022-09-29T07:45:56.320Z,30.93
2022-09-29T07:48:46.208Z,29.80
2022-09-29T07:51:34.706Z,28.13
2022-09-29T07:54:28.507Z,26.87
2022-09-29T07:57:17.886Z,28.63
2022-09-29T08:00:06.987Z,26.80
2022-09-29T08:03:02.467Z,27.33
2022-09-29T08:05:52.388Z,27.17
2022-09-29T08:08:45.210Z,26.90
2022-09-29T08:11:39.573Z,28.83
2022-09-29T08:14:28.834Z,28.23
2022-09-29T08:17:17.543Z,28.43
2022-09-29T08:20:07.007Z,26.57
2022-09-29T08:22:57.227Z,24.90
2022-09-29T08:25:55.302Z,24.47
2022-09-29T08:28:57.487Z,23.60
2022-09-29T08:31:51.256Z,23.50
2022-09-29T08:34:40.355Z,22.10
2022-09-29T08:37:33.067Z,23.07
2022-09-29T08:40:25.443Z,22.70
2022-09-29T08:43:31.037Z,23.03
2022-09-29T08:46:35.393Z,23.43
2022-09-29T08:49:33.499Z,22.53
2022-09-29T08:52:26.421Z,22.27
2022-09-29T08:55:27.007Z,22.70
2022-09-29T08:58:17.562Z,22.57
2022-09-29T09:01:17.581Z,22.70
2022-09-29T09:04:24.381Z,22.60
2022-09-29T09:07:22.415Z,21.23
2022-09-29T09:10:24.059Z,27.63
2022-09-29T09:13:32.616Z,20.07
2022-09-29T09:16:32.577Z,18.63
2022-09-29T09:19:43.695Z,15.97
2022-09-29T09:22:42.963Z,16.23
2022-09-29T09:25:33.921Z,15.00
2022-09-29T09:28:32.347Z,14.63
2022-09-29T09:31:28.325Z,14.40
2022-09-29T09:34:38.376Z,16.13
2022-09-29T09:37:31.961Z,13.97
2022-09-29T09:40:29.774Z,13.57
2022-09-29T09:43:23.691Z,12.27
2022-09-29T09:46:15.800Z,14.07
2022-09-29T09:49:13.063Z,11.38
2022-09-29T09:52:05.667Z,11.27
2022-09-29T09:54:57.457Z,16.63
2022-09-29T09:57:57.541Z,12.52
2022-09-29T10:00:51.198Z,14.73
2022-09-29T10:03:41.064Z,16.92
2022-09-29T10:06:30.362Z,17.33
2022-09-29T10:09:19.436Z,17.48
2022-09-29T10:12:13.763Z,17.52
2022-09-29T10:15:05.861Z,14.75
2022-09-29T10:18:01.646Z,15.32
2022-09-29T10:20:56.482Z,17.00
2022-09-29T10:23:52.092Z,16.75
2022-09-29T10:26:44.704Z,17.40
2022-09-29T10:32:37.499Z,18.00
2022-09-29T10:35:29.241Z,19.63
2022-09-29T10:41:14.892Z,15.98
2022-09-29T10:44:22.335Z,17.63
2022-09-29T10:47:16.572Z,18.48
2022-09-29T10:50:17.374Z,18.10
2022-09-29T10:53:18.138Z,18.47
2022-09-29T10:56:17.519Z,19.43
2022-09-29T10:59:07.294Z,20.10
2022-09-29T11:01:59.493Z,19.75
2022-09-29T11:04:49.235Z,25.47
2022-09-29T11:07:45.237Z,21.87
2022-09-29T11:10:36.086Z,21.73
2022-09-29T11:13:37.140Z,21.47
2022-09-29T11:16:30.962Z,22.77
2022-09-29T11:19:19.389Z,22.23
2022-09-29T11:22:35.564Z,19.97
2022-09-29T11:25:37.961Z,20.30
2022-09-29T11:28:48.494Z,20.70
2022-09-29T11:31:51.833Z,19.40
2022-09-29T11:34:55.322Z,19.43
2022-09-29T11:37:49.078Z,18.10
2022-09-29T11:40:45.934Z,17.07
2022-09-29T11:43:46.126Z,18.60
2022-09-29T11:46:55.129Z,15.43
2022-09-29T11:50:01.711Z,16.10
2022-09-29T11:53:24.706Z,16.20
2022-09-29T11:56:31.991Z,25.20
2022-09-29T11:59:41.456Z,15.70
2022-09-29T12:02:32.858Z,16.10
2022-09-29T12:05:35.124Z,24.10
2022-09-29T12:08:29.741Z,13.90
2022-09-29T12:11:47.475Z,14.15
2022-09-29T12:14:53.311Z,13.87
2022-09-29T12:17:46.894Z,14.70
2022-09-29T12:20:40.283Z,15.32
2022-09-29T12:23:38.095Z,14.98
2022-09-29T12:26:27.932Z,11.25
2022-09-29T12:29:24.264Z,12.75
2022-09-29T12:32:19.520Z,10.90
2022-09-29T12:35:16.377Z,13.52
2022-09-29T12:38:16.404Z,11.38
2022-09-29T12:41:17.419Z,10.48
2022-09-29T12:44:13.123Z,10.23
2022-09-29T12:47:07.415Z,9.70
2022-09-29T12:50:04.633Z,9.23
2022-09-29T12:52:58.257Z,13.80
2022-09-29T12:55:55.722Z,9.18
2022-09-29T12:58:39.789Z,7.57
2022-09-29T13:01:31.073Z,8.13
2022-09-29T13:04:56.409Z,10.52
2022-09-29T13:08:00.409Z,11.50
2022-09-29T13:11:07.597Z,8.90
2022-09-29T13:14:18.742Z,8.70
2022-09-29T13:17:20.827Z,9.95
2022-09-29T13:20:43.911Z,7.72
2022-09-29T13:24:16.768Z,8.35
2022-09-29T13:27:29.867Z,10.88
2022-09-29T13:30:20.802Z,5.72
2022-09-29T13:33:11.583Z,5.40
2022-09-29T13:36:00.501Z,5.38
2022-09-29T13:38:57.612Z,6.13
2022-09-29T13:41:46.007Z,5.57
2022-09-29T13:44:35.795Z,6.40
2022-09-29T13:47:35.072Z,7.50
2022-09-29T13:50:43.384Z,9.93
2022-09-29T13:53:32.789Z,8.07
2022-09-29T13:56:22.434Z,8.43
2022-09-29T13:59:15.675Z,14.20
2022-09-29T14:02:20.386Z,8.47
2022-09-29T14:05:30.644Z,7.67
2022-09-29T14:08:23.792Z,7.57
2022-09-29T14:11:23.333Z,7.20
2022-09-29T14:14:19.617Z,11.87
2022-09-29T14:17:16.431Z,7.83
2022-09-29T14:19:56.547Z,7.27
2022-09-29T14:22:59.152Z,9.43
2022-09-29T14:25:57.745Z,8.13
2022-09-29T14:28:46.902Z,8.53
2022-09-29T14:31:35.449Z,14.67
2022-09-29T14:34:29.463Z,9.10
2022-09-29T14:37:21.609Z,9.17
2022-09-29T14:40:27.806Z,8.90
2022-09-29T14:43:13.147Z,13.43
2022-09-29T14:47:03.627Z,8.73
2022-09-29T14:50:29.655Z,7.20
2022-09-29T14:53:45.012Z,7.17
2022-09-29T14:56:49.169Z,6.57
2022-09-29T14:59:53.452Z,6.83
2022-09-29T15:02:45.614Z,6.10
2022-09-29T15:05:36.615Z,5.53
2022-09-29T15:08:31.708Z,6.13
2022-09-29T15:11:32.643Z,6.27
2022-09-29T15:14:26.793Z,5.67
2022-09-29T15:17:25.350Z,5.50
2022-09-29T15:20:23.279Z,5.70
2022-09-29T15:23:31.632Z,5.93
2022-09-29T15:26:20.869Z,5.77
2022-09-29T15:29:17.289Z,6.10
2022-09-29T15:32:21.214Z,5.20
2022-09-29T15:35:16.861Z,5.27
2022-09-29T15:38:32.589Z,4.53
2022-09-29T15:41:27.419Z,4.27
2022-09-29T15:44:20.896Z,4.83
2022-09-29T15:47:24.811Z,4.60
2022-09-29T15:50:20.342Z,5.13
2022-09-29T15:53:10.240Z,4.93
2022-09-29T15:56:00.494Z,5.10
2022-09-29T15:58:49.884Z,5.30
2022-09-29T16:01:38.288Z,5.73
2022-09-29T16:04:27.908Z,6.00
2022-09-29T16:07:21.999Z,5.43
2022-09-29T16:10:17.529Z,6.03
2022-09-29T16:13:08.818Z,5.33
2022-09-29T16:16:00.060Z,5.20
2022-09-29T16:18:58.716Z,5.07
2022-09-29T16:21:53.375Z,5.20
2022-09-29T16:24:54.202Z,5.27
2022-09-29T16:27:48.958Z,5.33
2022-09-29T16:30:39.821Z,5.43
2022-09-29T16:33:28.358Z,6.07
2022-09-29T16:36:20.648Z,27.23
2022-09-29T16:39:20.039Z,14.10
2022-09-29T16:42:19.878Z,10.00
2022-09-29T16:44:59.353Z,8.90
2022-09-29T16:47:51.136Z,15.33
2022-09-29T16:50:39.533Z,10.03
2022-09-29T16:53:31.520Z,9.90
2022-09-29T16:56:25.907Z,10.77
2022-09-29T16:59:12.543Z,11.00
2022-09-29T17:01:53.078Z,12.80
2022-09-29T17:04:43.093Z,12.93
2022-09-29T17:07:32.554Z,15.30
2022-09-29T17:10:22.434Z,12.17
2022-09-29T17:13:15.982Z,11.80
2022-09-29T17:16:08.122Z,15.87
2022-09-29T17:19:01.293Z,16.57
2022-09-29T17:21:51.828Z,13.50
2022-09-29T17:24:40.157Z,13.33
2022-09-29T17:27:47.282Z,12.10
2022-09-29T17:30:28.666Z,16.30
2022-09-29T17:33:18.760Z,16.27
2022-09-29T17:36:09.282Z,14.73
2022-09-29T17:38:58.946Z,14.93
2022-09-29T17:41:47.748Z,15.63
2022-09-29T17:44:37.940Z,15.20
2022-09-29T17:47:29.238Z,31.53
2022-09-29T17:50:24.691Z,18.43
2022-09-29T17:53:14.202Z,16.47
2022-09-29T17:56:04.850Z,16.53
2022-09-29T17:58:54.059Z,17.03
2022-09-29T18:01:42.501Z,17.50
2022-09-29T18:04:33.829Z,18.90
2022-09-29T18:07:22.306Z,18.07
2022-09-29T18:10:22.337Z,19.53
2022-09-29T18:13:12.511Z,20.07
2022-09-29T18:16:03.102Z,20.63
2022-09-29T18:18:57.984Z,21.47
2022-09-29T18:21:47.295Z,22.37
2022-09-29T18:24:35.953Z,23.00
2022-09-29T18:27:24.307Z,24.40
2022-09-29T18:30:20.550Z,24.90
2022-09-29T18:33:14.504Z,25.73
2022-09-29T18:36:03.475Z,27.00
2022-09-29T18:38:51.987Z,25.87
2022-09-29T18:41:40.751Z,26.07
2022-09-29T18:44:33.510Z,25.03
2022-09-29T18:47:23.333Z,24.10
2022-09-29T18:50:16.673Z,25.50
2022-09-29T18:53:04.975Z,27.77
2022-09-29T18:56:00.262Z,27.67
2022-09-29T18:58:48.653Z,32.80
2022-09-29T19:01:37.162Z,31.93
2022-09-29T19:04:27.214Z,30.83
2022-09-29T19:07:15.799Z,31.90
2022-09-29T19:10:04.216Z,32.97
2022-09-29T19:12:58.876Z,33.77
2022-09-29T19:15:48.411Z,33.80
2022-09-29T19:18:36.831Z,35.57
2022-09-29T19:21:26.919Z,34.20
2022-09-29T19:24:16.443Z,35.77
2022-09-29T19:27:05.118Z,36.83
2022-09-29T19:29:58.425Z,37.07
2022-09-29T19:32:49.547Z,37.77
2022-09-29T19:35:38.704Z,36.77
2022-09-29T19:38:28.561Z,37.27
2022-09-29T19:41:20.163Z,41.77
2022-09-29T19:44:09.633Z,38.77
2022-09-29T19:46:59.481Z,39.67
2022-09-29T19:49:47.886Z,39.53
2022-09-29T19:52:35.334Z,40.00
2022-09-29T19:55:25.666Z,42.30
2022-09-29T19:58:14.306Z,44.27
2022-09-29T20:01:02.717Z,44.40
2022-09-29T20:03:51.068Z,45.60
2022-09-29T20:06:40.077Z,47.40
2022-09-29T20:09:28.964Z,47.50
2022-09-29T20:12:19.730Z,48.03
2022-09-29T20:15:09.062Z,49.40
2022-09-29T20:17:57.608Z,49.00
2022-09-29T20:20:51.646Z,50.60
2022-09-29T20:23:40.411Z,52.00
2022-09-29T20:26:29.756Z,49.90
2022-09-29T20:29:20.575Z,50.80
2022-09-29T20:32:08.914Z,50.17
2022-09-29T20:34:57.234Z,51.43
2022-09-29T20:37:49.324Z,52.30
2022-09-29T20:40:37.627Z,52.57
2022-09-29T20:43:26.303Z,54.00
2022-09-29T20:46:16.540Z,56.77
2022-09-29T20:49:05.168Z,56.07
2022-09-29T20:51:53.890Z,55.17
2022-09-29T20:54:43.161Z,55.37
2022-09-29T20:57:33.529Z,56.27
2022-09-29T21:00:21.926Z,57.70
2022-09-29T21:03:11.707Z,57.87
2022-09-29T21:06:00.009Z,60.77
2022-09-29T21:08:48.664Z,56.87
2022-09-29T21:11:40.173Z,56.47
2022-09-29T21:14:29.355Z,57.83
2022-09-29T21:17:17.803Z,60.13
2022-09-29T21:20:09.351Z,61.50
2022-09-29T21:22:57.730Z,62.27
2022-09-29T21:25:46.077Z,62.97
2022-09-29T21:28:38.702Z,61.40
2022-09-29T21:31:28.745Z,65.20
2022-09-29T21:34:17.469Z,65.60
2022-09-29T21:37:07.376Z,67.30
2022-09-29T21:39:55.720Z,67.40
2022-09-29T21:42:44.014Z,65.33
2022-09-29T21:45:32.332Z,67.17
2022-09-29T21:48:20.763Z,66.93
2022-09-29T21:51:11.348Z,66.90
2022-09-29T21:54:01.445Z,64.23
2022-09-29T21:56:53.148Z,65.47
2022-09-29T21:59:41.431Z,68.80
2022-09-29T22:02:29.848Z,68.10
2022-09-29T22:05:18.315Z,68.40
2022-09-29T22:08:11.450Z,65.20
2022-09-29T22:11:01.945Z,67.30
2022-09-29T22:13:51.348Z,65.40
2022-09-29T22:16:39.995Z,64.80
2022-09-29T22:19:29.088Z,64.47
2022-09-29T22:22:17.399Z,64.70
2022-09-29T22:25:06.880Z,64.50
2022-09-29T22:27:56.621Z,64.63
2022-09-29T22:30:44.986Z,65.17
2022-09-29T22:33:33.954Z,64.33
2022-09-29T22:36:22.334Z,65.43
2022-09-29T22:39:12.075Z,64.67
2022-09-29T22:42:01.416Z,62.97
2022-09-29T22:44:51.187Z,63.57
2022-09-29T22:47:39.583Z,63.80
2022-09-29T22:50:31.517Z,61.27
2022-09-29T22:53:19.843Z,62.03
2022-09-29T22:56:13.479Z,61.10
2022-09-29T22:59:04.380Z,60.10
2022-09-29T23:01:54.359Z,58.50
2022-09-29T23:04:42.771Z,59.60
2022-09-29T23:07:31.163Z,59.30
2022-09-29T23:10:19.570Z,59.53
2022-09-29T23:13:07.953Z,61.00
2022-09-29T23:15:56.293Z,60.93
2022-09-29T23:18:47.382Z,60.50
2022-09-29T23:21:35.810Z,61.00
2022-09-29T23:24:24.445Z,61.63
2022-09-29T23:27:12.823Z,60.50
2022-09-29T23:30:01.159Z,59.43
2022-09-29T23:32:49.973Z,58.23
2022-09-29T23:35:39.679Z,59.40
2022-09-29T23:38:45.871Z,59.23
2022-09-29T23:41:34.451Z,58.87
2022-09-29T23:44:24.932Z,59.43
2022-09-29T23:47:13.222Z,58.43
2022-09-29T23:50:02.051Z,58.70
2022-09-29T23:52:51.822Z,59.57
2022-09-29T23:55:40.363Z,57.77
2022-09-29T23:58:28.711Z,59.47
